Time;durP1;ratioP1;P1;durP2;ratioP2;P2;SDS_P1;SDS_P2;PMS_P1;PMS_P2;Temp;Humidity;BMP_temperature;BMP_pressure;BME280_temperature;BME280_humidity;BME280_pressure;Samples;Min_cycle;Max_cycle;Signal;HPM_P1;HPM_P2
2021/12/03 00:00:35;;;;;;;5.37;4.57;;;;;;;-0.23;88.02;99558.72;4955918;28;20614;-60
2021/12/03 00:03:01;;;;;;;5.33;4.70;;;;;;;-0.19;87.57;99562.88;4983103;28;20183;-60
2021/12/03 00:05:26;;;;;;;4.67;4.27;;;;;;;-0.37;87.87;99566.56;4971726;28;20180;-60
2021/12/03 00:07:51;;;;;;;4.97;4.40;;;;;;;-0.26;87.12;99575.63;4971768;28;20332;-59
2021/12/03 00:10:21;;;;;;;5.20;4.70;;;;;;;-0.23;87.07;99578.13;4963908;28;20180;-60
2021/12/03 00:12:47;;;;;;;4.83;4.40;;;;;;;-0.24;86.83;99576.44;4984569;28;20547;-60
2021/12/03 00:15:14;;;;;;;4.97;4.47;;;;;;;-0.30;86.94;99582.44;4962929;28;20286;-60
2021/12/03 00:17:39;;;;;;;7.50;5.07;;;;;;;-0.42;86.81;99578.44;4986752;28;20647;-60
2021/12/03 00:20:08;;;;;;;5.83;5.33;;;;;;;-0.34;86.84;99574.06;4962471;28;20179;-59
2021/12/03 00:22:34;;;;;;;5.07;4.67;;;;;;;-0.36;86.96;99580.88;4985859;28;20172;-60
2021/12/03 00:24:59;;;;;;;6.20;5.60;;;;;;;-0.42;86.92;99582.66;4986477;28;20683;-59
2021/12/03 00:27:25;;;;;;;6.57;5.20;;;;;;;-0.49;87.59;99594.56;4971903;28;20180;-60
2021/12/03 00:29:50;;;;;;;7.37;6.37;;;;;;;-0.56;87.92;99598.91;4989568;28;20212;-59
2021/12/03 00:32:15;;;;;;;6.83;5.07;;;;;;;-0.59;88.62;99601.47;4987125;28;20272;-59
2021/12/03 00:34:40;;;;;;;5.93;5.33;;;;;;;-0.59;88.86;99598.94;4971418;28;20208;-59
2021/12/03 00:37:06;;;;;;;5.93;5.40;;;;;;;-0.61;88.97;99615.81;4979659;28;20608;-60
2021/12/03 00:39:31;;;;;;;6.40;5.80;;;;;;;-0.62;89.03;99613.31;4990855;28;20203;-59
2021/12/03 00:42:00;;;;;;;6.40;5.80;;;;;;;-0.69;89.30;99627.75;4987912;28;20565;-59
2021/12/03 00:44:26;;;;;;;6.23;5.63;;;;;;;-0.55;89.36;99630.03;4971638;28;20526;-60
2021/12/03 00:46:52;;;;;;;8.30;6.87;;;;;;;-0.62;89.20;99631.84;4971738;28;20293;-59
2021/12/03 00:49:17;;;;;;;6.53;5.93;;;;;;;-0.68;89.91;99630.25;4971585;28;20667;-59
2021/12/03 00:51:43;;;;;;;7.07;6.37;;;;;;;-0.61;89.57;99632.66;4974055;28;20321;-59
2021/12/03 00:54:08;;;;;;;7.33;6.63;;;;;;;-0.54;89.67;99637.59;4973765;28;20182;-59
2021/12/03 00:56:33;;;;;;;7.40;6.67;;;;;;;-0.74;89.61;99637.09;4971632;28;20206;-59
2021/12/03 00:58:59;;;;;;;6.67;6.07;;;;;;;-0.75;90.07;99637.94;4974916;28;20210;-59
2021/12/03 01:01:24;;;;;;;8.53;6.90;;;;;;;-0.62;90.28;99633.53;4975714;28;20898;-59
2021/12/03 01:03:50;;;;;;;7.63;6.83;;;;;;;-0.58;90.19;99633.47;4979561;28;20190;-59
2021/12/03 01:06:16;;;;;;;7.97;7.07;;;;;;;-0.61;89.72;99625.09;4975035;28;20262;-59
2021/12/03 01:08:41;;;;;;;7.83;7.03;;;;;;;-0.66;89.98;99631.06;4975323;28;20708;-59
2021/12/03 01:11:09;;;;;;;8.27;6.90;;;;;;;-0.83;90.52;99613.63;4973494;28;20329;-58
2021/12/03 01:13:37;;;;;;;8.27;7.13;;;;;;;-0.66;90.81;99625.16;4981311;28;20187;-59
2021/12/03 01:16:04;;;;;;;10.07;7.87;;;;;;;-0.56;90.76;99630.91;4974840;28;20208;-59
2021/12/03 01:18:29;;;;;;;8.20;6.97;;;;;;;-0.60;90.43;99630.13;4989586;28;20210;-59
2021/12/03 01:20:55;;;;;;;8.57;7.37;;;;;;;-0.62;90.49;99636.06;4971390;28;20230;-59
2021/12/03 01:23:20;;;;;;;8.60;7.40;;;;;;;-0.61;90.22;99645.31;4983039;28;20179;-59
2021/12/03 01:25:45;;;;;;;8.83;7.90;;;;;;;-0.56;89.73;99654.50;4973325;28;20218;-59
2021/12/03 01:28:12;;;;;;;8.90;8.00;;;;;;;-0.62;90.00;99657.13;4974842;28;20541;-59
2021/12/03 01:30:38;;;;;;;10.67;8.27;;;;;;;-0.73;90.07;99649.69;4993831;28;20218;-59
2021/12/03 01:33:06;;;;;;;9.23;8.10;;;;;;;-0.76;90.39;99657.31;5009987;28;20242;-59
2021/12/03 01:35:32;;;;;;;10.63;9.13;;;;;;;-0.79;91.19;99651.47;4992579;28;20191;-59
2021/12/03 01:37:57;;;;;;;9.87;8.33;;;;;;;-0.85;91.11;99654.94;4992243;28;20273;-60
2021/12/03 01:40:26;;;;;;;10.40;9.10;;;;;;;-0.85;91.32;99658.28;4986393;28;20591;-59
2021/12/03 01:42:51;;;;;;;11.37;9.43;;;;;;;-0.99;91.39;99655.97;4990930;28;20179;-59
2021/12/03 01:45:25;;;;;;;11.30;10.07;;;;;;;-1.08;92.12;99651.06;4974111;28;20226;-59
2021/12/03 01:47:52;;;;;;;12.50;11.10;;;;;;;-1.13;92.97;99650.25;4974400;28;20209;-59
2021/12/03 01:50:22;;;;;;;12.57;10.77;;;;;;;-1.30;94.16;99653.03;4966130;28;20172;-59
2021/12/03 01:52:47;;;;;;;12.40;11.10;;;;;;;-1.38;95.19;99658.16;4986745;28;20170;-59
2021/12/03 01:55:14;;;;;;;12.13;10.80;;;;;;;-1.72;97.89;99653.53;4974022;28;20213;-59
2021/12/03 01:57:39;;;;;;;12.40;11.07;;;;;;;-1.49;98.57;99659.97;4974181;28;20228;-58
2021/12/03 02:00:10;;;;;;;15.53;11.23;;;;;;;-1.46;98.14;99660.78;4979569;28;20279;-59
2021/12/03 02:02:36;;;;;;;15.67;11.97;;;;;;;-1.41;98.24;99663.25;4987953;28;20191;-59
2021/12/03 02:05:02;;;;;;;15.53;11.93;;;;;;;-1.42;97.51;99669.16;4973838;28;20178;-59
2021/12/03 02:07:27;;;;;;;13.97;11.87;;;;;;;-1.47;97.50;99674.25;4974161;28;20253;-58
2021/12/03 02:09:52;;;;;;;18.10;12.47;;;;;;;-1.65;97.75;99671.94;4973861;28;20264;-59
2021/12/03 02:12:17;;;;;;;16.40;12.03;;;;;;;-1.60;97.78;99680.31;4979007;28;20282;-59
2021/12/03 02:14:43;;;;;;;17.73;13.13;;;;;;;-1.62;97.70;99687.88;4973583;28;20663;-59
2021/12/03 02:17:08;;;;;;;14.53;12.67;;;;;;;-1.56;97.69;99691.16;4973830;28;20171;-59
2021/12/03 02:19:34;;;;;;;15.97;13.40;;;;;;;-1.58;97.50;99695.41;4980581;28;20206;-59
2021/12/03 02:22:00;;;;;;;16.40;13.40;;;;;;;-1.75;99.12;99703.16;4997393;28;20298;-59
2021/12/03 02:24:25;;;;;;;16.63;13.27;;;;;;;-1.80;99.60;99698.16;4985058;28;20292;-59
2021/12/03 02:26:51;;;;;;;16.17;12.97;;;;;;;-1.77;100.00;99707.38;4993043;28;20260;-59
2021/12/03 02:29:17;;;;;;;16.03;12.57;;;;;;;-1.81;100.00;99701.53;4992718;28;20251;-59
2021/12/03 02:31:42;;;;;;;14.77;12.57;;;;;;;-1.83;100.00;99700.72;4998440;28;20299;-59
2021/12/03 02:34:07;;;;;;;16.07;13.23;;;;;;;-1.80;100.00;99703.19;5014739;28;20649;-59
2021/12/03 02:36:33;;;;;;;18.00;12.53;;;;;;;-1.86;100.00;99708.31;5007251;28;20173;-60
2021/12/03 02:38:59;;;;;;;14.03;12.23;;;;;;;-1.85;100.00;99704.94;4992630;28;20207;-60
2021/12/03 02:41:24;;;;;;;16.37;13.63;;;;;;;-1.90;100.00;99702.44;4989639;28;20218;-60
2021/12/03 02:43:50;;;;;;;14.23;12.50;;;;;;;-1.85;100.00;99708.31;4977881;28;20173;-60
2021/12/03 02:46:15;;;;;;;12.57;11.07;;;;;;;-1.88;100.00;99708.31;4973281;28;20181;-60
2021/12/03 02:48:41;;;;;;;12.33;10.50;;;;;;;-1.78;100.00;99693.94;4973060;28;20196;-61
2021/12/03 02:51:07;;;;;;;14.80;10.40;;;;;;;-1.77;100.00;99703.19;4971090;28;20306;-61
2021/12/03 02:53:34;;;;;;;11.70;9.27;;;;;;;-1.76;100.00;99712.41;4979746;28;20229;-60
2021/12/03 02:56:00;;;;;;;10.97;8.50;;;;;;;-1.64;100.00;99714.81;4972953;28;20466;-60
2021/12/03 02:58:25;;;;;;;9.00;7.73;;;;;;;-1.42;100.00;99711.22;4972934;28;20193;-61
2021/12/03 03:00:51;;;;;;;14.07;8.50;;;;;;;-1.44;100.00;99713.72;4969122;28;20307;-61
2021/12/03 03:03:17;;;;;;;8.67;7.63;;;;;;;-1.42;100.00;99716.25;4981736;28;20240;-61
2021/12/03 03:05:57;;;;;;;10.47;7.60;;;;;;;-1.37;100.00;99717.03;4972638;28;20417;-61
2021/12/03 03:08:23;;;;;;;8.93;7.40;;;;;;;-1.43;100.00;99717.94;4972845;28;20192;-61
2021/12/03 03:10:49;;;;;;;9.63;7.33;;;;;;;-1.43;99.91;99719.63;4968670;28;20525;-61
2021/12/03 03:13:14;;;;;;;10.87;7.50;;;;;;;-1.48;100.00;99723.06;4981774;28;20419;-60
2021/12/03 03:15:40;;;;;;;11.53;7.57;;;;;;;-1.55;100.00;99710.50;4972452;28;20209;-61
2021/12/03 03:18:21;;;;;;;9.30;6.83;;;;;;;-1.60;100.00;99717.28;4972811;28;20197;-61
2021/12/03 03:20:47;;;;;;;8.43;6.77;;;;;;;-1.46;100.00;99710.41;4967700;28;20241;-61
2021/12/03 03:23:14;;;;;;;8.10;7.30;;;;;;;-1.49;100.00;99710.44;4981749;28;20460;-61
2021/12/03 03:25:43;;;;;;;13.03;7.87;;;;;;;-1.62;100.00;99713.09;4972385;28;20177;-61
2021/12/03 03:28:10;;;;;;;10.33;6.87;;;;;;;-1.55;100.00;99706.31;4972554;28;20664;-60
2021/12/03 03:30:38;;;;;;;10.13;6.60;;;;;;;-1.58;100.00;99700.47;4996533;28;20305;-60
2021/12/03 03:33:04;;;;;;;7.80;6.60;;;;;;;-1.62;100.00;99695.44;4999800;28;20182;-60
2021/12/03 03:35:30;;;;;;;8.93;7.47;;;;;;;-1.69;100.00;99696.34;4971854;28;20276;-62
2021/12/03 03:37:55;;;;;;;9.63;7.43;;;;;;;-1.60;100.00;99694.59;4994452;28;20190;-61
2021/12/03 03:40:21;;;;;;;9.17;7.00;;;;;;;-1.66;100.00;99703.06;4988504;28;20181;-61
2021/12/03 03:42:47;;;;;;;11.47;6.33;;;;;;;-1.79;100.00;99708.25;4990136;28;20244;-61
2021/12/03 03:45:15;;;;;;;9.83;6.43;;;;;;;-1.68;100.00;99712.34;4972013;28;20202;-58
2021/12/03 03:47:41;;;;;;;11.97;7.10;;;;;;;-1.60;100.00;99717.28;4972154;28;20200;-61
2021/12/03 03:50:07;;;;;;;15.50;6.50;;;;;;;-1.63;100.00;99718.97;4962560;28;20200;-61
2021/12/03 03:52:34;;;;;;;8.67;6.23;;;;;;;-1.62;100.00;99729.94;4986334;28;20425;-59
2021/12/03 03:54:59;;;;;;;13.27;6.20;;;;;;;-1.56;100.00;99723.97;4971857;28;20460;-59
2021/12/03 03:57:25;;;;;;;9.60;6.47;;;;;;;-1.62;100.00;99719.84;4972426;28;20184;-59
2021/12/03 03:59:50;;;;;;;10.80;7.20;;;;;;;-1.56;100.00;99729.84;4971957;28;20230;-59
2021/12/03 04:02:16;;;;;;;13.23;7.83;;;;;;;-1.69;100.00;99726.63;4967863;28;20229;-59
2021/12/03 04:04:41;;;;;;;9.00;6.97;;;;;;;-1.63;100.00;99725.72;4971576;28;20285;-59
2021/12/03 04:07:07;;;;;;;12.10;7.17;;;;;;;-1.72;100.00;99723.31;4972193;28;20262;-59
2021/12/03 04:09:32;;;;;;;9.97;7.53;;;;;;;-1.65;100.00;99723.22;4971945;28;20201;-59
2021/12/03 04:11:58;;;;;;;9.53;7.63;;;;;;;-1.67;100.00;99731.66;4976446;28;20228;-59
2021/12/03 04:14:23;;;;;;;13.13;7.70;;;;;;;-1.67;100.00;99735.00;4972169;28;20668;-60
2021/12/03 04:16:49;;;;;;;10.77;7.40;;;;;;;-1.68;100.00;99733.34;4975424;28;20234;-59
2021/12/03 04:19:15;;;;;;;9.90;7.57;;;;;;;-1.59;100.00;99736.63;4973428;28;20189;-59
2021/12/03 04:21:41;;;;;;;10.97;7.40;;;;;;;-1.63;99.56;99739.16;4974167;28;20224;-58
2021/12/03 04:24:07;;;;;;;14.63;8.50;;;;;;;-1.53;98.83;99739.06;4974460;28;20787;-59
2021/12/03 04:26:32;;;;;;;16.60;8.40;;;;;;;-1.81;99.15;99747.75;4971910;28;20168;-60
2021/12/03 04:28:58;;;;;;;8.70;7.80;;;;;;;-2.09;100.00;99753.91;4974298;28;20288;-60
2021/12/03 04:31:23;;;;;;;11.20;8.00;;;;;;;-2.15;100.00;99749.75;4990237;28;20219;-59
2021/12/03 04:33:49;;;;;;;10.67;7.23;;;;;;;-2.27;100.00;99750.66;4985473;28;20216;-58
2021/12/03 04:36:14;;;;;;;13.63;8.10;;;;;;;-2.24;100.00;99743.09;4977137;28;20205;-59
2021/12/03 04:38:39;;;;;;;9.17;7.30;;;;;;;-2.16;100.00;99741.34;4993549;28;20203;-58
2021/12/03 04:41:05;;;;;;;9.20;7.33;;;;;;;-2.20;100.00;99742.22;4991064;28;20227;-59
2021/12/03 04:43:30;;;;;;;10.43;7.60;;;;;;;-2.23;100.00;99742.25;4981323;28;20190;-59
2021/12/03 04:45:56;;;;;;;8.53;6.77;;;;;;;-2.31;100.00;99742.31;4989221;28;20169;-60
2021/12/03 04:48:21;;;;;;;8.63;7.13;;;;;;;-2.52;100.00;99740.75;4974198;28;20221;-58
2021/12/03 04:50:47;;;;;;;10.00;6.53;;;;;;;-2.53;100.00;99739.09;4969932;28;20223;-59
2021/12/03 04:53:13;;;;;;;10.60;6.83;;;;;;;-2.44;100.00;99746.59;4983565;28;20170;-59
2021/12/03 04:55:39;;;;;;;8.83;6.67;;;;;;;-2.49;100.00;99743.25;4973764;28;20696;-58
2021/12/03 04:58:05;;;;;;;8.27;6.57;;;;;;;-2.51;100.00;99746.66;4974016;28;20433;-59
2021/12/03 05:00:40;;;;;;;10.30;6.80;;;;;;;-2.51;100.00;99749.16;4967811;28;20312;-59
2021/12/03 05:03:07;;;;;;;8.90;6.33;;;;;;;-2.33;100.00;99745.66;4984324;28;20460;-59
2021/12/03 05:05:34;;;;;;;11.10;6.87;;;;;;;-2.23;100.00;99738.88;4973841;28;20173;-59
2021/12/03 05:08:07;;;;;;;12.63;7.63;;;;;;;-2.22;100.00;99748.09;4986672;28;20454;-59
2021/12/03 05:10:34;;;;;;;8.57;6.80;;;;;;;-2.19;100.00;99758.19;4982356;28;20718;-59
2021/12/03 05:13:04;;;;;;;13.43;7.33;;;;;;;-2.15;100.00;99749.75;4988402;28;20834;-59
2021/12/03 05:15:30;;;;;;;7.90;6.83;;;;;;;-2.14;100.00;99749.72;4973464;28;20203;-60
2021/12/03 05:17:55;;;;;;;10.90;7.47;;;;;;;-2.21;100.00;99748.09;4973719;28;20427;-60
2021/12/03 05:20:21;;;;;;;10.87;6.73;;;;;;;-2.19;100.00;99743.06;4966172;28;20177;-59
2021/12/03 05:22:46;;;;;;;9.93;7.73;;;;;;;-2.24;100.00;99745.59;4972313;28;20218;-59
2021/12/03 05:25:12;;;;;;;11.50;7.07;;;;;;;-2.08;100.00;99741.28;4973443;28;20177;-59
2021/12/03 05:27:39;;;;;;;9.33;7.63;;;;;;;-2.06;100.00;99749.69;4973664;28;20177;-59
2021/12/03 05:30:06;;;;;;;10.60;7.60;;;;;;;-2.29;100.00;99740.59;4985066;28;20177;-60
2021/12/03 05:32:31;;;;;;;16.53;9.00;;;;;;;-2.25;100.00;99748.16;5013916;28;20423;-59
2021/12/03 05:34:56;;;;;;;12.10;7.73;;;;;;;-2.27;100.00;99753.16;4973307;28;20917;-59
2021/12/03 05:37:22;;;;;;;10.35;6.80;;;;;;;-2.19;100.00;99750.63;4945649;28;1089737;-59
2021/12/03 05:39:47;;;;;;;9.73;7.23;;;;;;;-2.16;100.00;99753.09;4995254;28;20284;-59
2021/12/03 05:42:12;;;;;;;9.63;7.13;;;;;;;-1.98;100.00;99759.69;4990002;28;20303;-58
2021/12/03 05:44:38;;;;;;;8.90;6.93;;;;;;;-1.98;100.00;99764.72;4987005;28;20254;-59
2021/12/03 05:47:04;;;;;;;11.17;7.27;;;;;;;-1.93;100.00;99760.47;4993798;28;20252;-59
2021/12/03 05:49:29;;;;;;;11.93;7.07;;;;;;;-1.78;100.00;99756.97;4990638;28;20204;-59
2021/12/03 05:51:55;;;;;;;8.50;6.93;;;;;;;-1.82;100.00;99750.31;4990597;28;20668;-59
2021/12/03 05:54:21;;;;;;;9.80;7.13;;;;;;;-1.77;100.00;99746.03;4974862;28;20542;-59
2021/12/03 05:56:48;;;;;;;11.33;8.03;;;;;;;-1.70;100.00;99750.19;4982050;28;20920;-58
2021/12/03 05:59:13;;;;;;;13.10;6.87;;;;;;;-1.63;100.00;99750.94;4993332;28;20452;-59
2021/12/03 06:01:38;;;;;;;11.27;6.93;;;;;;;-1.62;100.00;99743.34;4995439;28;20227;-58
2021/12/03 06:04:04;;;;;;;8.43;6.80;;;;;;;-1.63;100.00;99746.72;4979976;28;20279;-59
2021/12/03 06:06:29;;;;;;;12.40;7.20;;;;;;;-1.65;99.92;99752.63;4974134;28;20298;-59
2021/12/03 06:08:57;;;;;;;11.57;6.20;;;;;;;-1.64;99.68;99751.78;4983626;28;20544;-59
2021/12/03 06:11:23;;;;;;;11.53;6.30;;;;;;;-1.63;99.11;99764.38;4982409;28;20282;-58
2021/12/03 06:13:48;;;;;;;7.90;6.73;;;;;;;-1.76;99.25;99760.34;4978278;28;20263;-59
2021/12/03 06:16:14;;;;;;;10.27;8.40;;;;;;;-1.72;99.59;99766.19;4973840;28;20204;-59
2021/12/03 06:18:39;;;;;;;10.97;7.30;;;;;;;-1.76;99.53;99769.56;4988606;28;20193;-59
2021/12/03 06:21:06;;;;;;;7.60;6.33;;;;;;;-1.81;100.00;99778.03;4971903;28;20302;-59
2021/12/03 06:23:32;;;;;;;7.90;5.80;;;;;;;-1.71;100.00;99778.78;4980537;28;20180;-59
2021/12/03 06:25:58;;;;;;;9.63;6.17;;;;;;;-1.67;100.00;99774.53;4973788;28;20778;-59
2021/12/03 06:28:25;;;;;;;10.93;6.50;;;;;;;-1.43;99.25;99777.66;4973821;28;20189;-59
2021/12/03 06:30:51;;;;;;;9.80;6.10;;;;;;;-1.55;99.21;99774.41;5003724;28;20224;-60
2021/12/03 06:33:19;;;;;;;11.67;6.63;;;;;;;-1.50;98.73;99776.88;5004394;28;20434;-59
2021/12/03 06:35:47;;;;;;;9.47;6.87;;;;;;;-1.44;98.77;99781.84;4992753;28;20216;-59
2021/12/03 06:38:14;;;;;;;10.50;6.73;;;;;;;-1.49;98.35;99788.63;4992028;28;20839;-59
2021/12/03 06:40:39;;;;;;;11.63;8.97;;;;;;;-1.65;98.57;99790.47;4987280;28;20508;-59
2021/12/03 06:43:05;;;;;;;15.27;7.60;;;;;;;-1.55;98.81;99787.03;5002896;28;20412;-59
2021/12/03 06:45:30;;;;;;;13.60;8.13;;;;;;;-1.59;98.79;99797.16;4992357;28;20173;-60
2021/12/03 06:47:56;;;;;;;10.77;7.27;;;;;;;-1.62;98.66;99798.03;4985146;28;20698;-60
2021/12/03 06:50:23;;;;;;;11.00;7.10;;;;;;;-1.68;98.53;99805.66;4965758;28;20196;-60
2021/12/03 06:55:24;;;;;;;8.67;6.13;;;;;;;-1.67;99.19;99803.09;4972288;28;20969;-60
2021/12/03 06:57:49;;;;;;;8.93;6.30;;;;;;;-1.86;99.30;99804.09;4973056;28;20259;-60
2021/12/03 07:00:16;;;;;;;8.60;6.53;;;;;;;-2.08;100.00;99799.25;4979978;28;20235;-60
2021/12/03 07:02:41;;;;;;;7.43;6.27;;;;;;;-2.02;100.00;99816.00;5006087;28;20181;-60
2021/12/03 07:05:08;;;;;;;10.70;6.33;;;;;;;-1.99;100.00;99823.56;4990872;28;20267;-60
2021/12/03 07:07:34;;;;;;;8.60;6.40;;;;;;;-1.88;100.00;99818.44;4990146;28;20186;-60
2021/12/03 07:10:01;;;;;;;9.63;6.40;;;;;;;-1.81;100.00;99822.56;4990502;28;20195;-60
2021/12/03 07:12:27;;;;;;;7.40;5.90;;;;;;;-1.92;99.92;99826.84;4996007;28;20482;-60
2021/12/03 07:14:53;;;;;;;8.50;6.40;;;;;;;-1.86;100.00;99830.19;4990886;28;20206;-60
2021/12/03 07:17:18;;;;;;;10.13;7.17;;;;;;;-1.73;100.00;99825.03;4991304;28;20179;-60
2021/12/03 07:19:44;;;;;;;8.03;6.63;;;;;;;-1.64;99.86;99822.41;4991677;28;20254;-60
2021/12/03 07:22:09;;;;;;;14.50;6.80;;;;;;;-1.55;99.38;99834.09;5005516;28;20218;-56
2021/12/03 07:24:35;;;;;;;12.83;7.20;;;;;;;-1.46;99.93;99834.03;4991851;28;20185;-59
2021/12/03 07:27:00;;;;;;;12.80;7.17;;;;;;;-1.44;99.91;99832.31;4992081;28;20256;-59
2021/12/03 07:29:26;;;;;;;10.07;6.53;;;;;;;-1.26;99.47;99833.84;4997542;28;20622;-59
2021/12/03 07:31:51;;;;;;;11.10;6.43;;;;;;;-1.19;98.43;99847.22;5010953;28;20307;-59
2021/12/03 07:34:17;;;;;;;9.47;7.63;;;;;;;-1.12;97.59;99848.81;4989627;28;20216;-59
2021/12/03 07:36:42;;;;;;;9.67;6.80;;;;;;;-1.00;96.96;99845.34;4991155;28;20669;-59
2021/12/03 07:39:08;;;;;;;13.93;7.70;;;;;;;-1.12;96.48;99843.78;4991350;28;20218;-59
2021/12/03 07:41:36;;;;;;;11.53;7.50;;;;;;;-0.93;96.25;99852.00;4997422;28;20235;-59
2021/12/03 07:44:02;;;;;;;10.17;7.13;;;;;;;-0.69;95.93;99842.47;4994013;28;20189;-59
2021/12/03 07:46:27;;;;;;;12.70;7.60;;;;;;;-0.82;94.99;99842.63;4990921;28;20177;-59
2021/12/03 07:48:52;;;;;;;11.43;7.30;;;;;;;-0.79;94.96;99843.41;4990743;28;20206;-59
2021/12/03 07:51:18;;;;;;;9.03;7.07;;;;;;;-0.60;95.00;99847.38;4991384;28;20214;-59
2021/12/03 07:53:43;;;;;;;9.30;7.17;;;;;;;-0.57;94.45;99844.84;4996614;28;20178;-59
2021/12/03 07:56:09;;;;;;;12.47;7.50;;;;;;;-0.48;94.37;99838.81;4981996;28;20775;-59
2021/12/03 07:58:35;;;;;;;14.67;7.27;;;;;;;-0.27;93.66;99846.94;4972443;28;20331;-59
2021/12/03 08:01:01;;;;;;;12.80;7.83;;;;;;;-0.15;93.42;99845.94;4970439;28;20703;-59
2021/12/03 08:03:26;;;;;;;10.43;7.57;;;;;;;0.19;93.34;99848.81;4980740;28;20267;-59
2021/12/03 08:05:52;;;;;;;11.87;7.23;;;;;;;0.14;91.21;99845.53;4990521;28;20262;-59
2021/12/03 08:08:25;;;;;;;9.30;6.70;;;;;;;0.42;91.20;99840.84;4989648;28;20676;-59
2021/12/03 08:10:51;;;;;;;9.17;6.57;;;;;;;0.38;90.59;99851.03;4986953;28;20305;-59
2021/12/03 08:13:17;;;;;;;8.77;7.35;;;;;;;0.73;89.42;99845.38;4999327;28;20431;-59
2021/12/03 08:15:43;;;;;;;8.70;6.53;;;;;;;0.95;88.69;99848.31;4998609;28;20598;-59
2021/12/03 08:18:08;;;;;;;8.67;6.60;;;;;;;0.94;87.44;99851.75;4999918;28;20203;-59
2021/12/03 08:20:34;;;;;;;7.93;6.50;;;;;;;1.14;86.59;99847.97;4984622;28;20253;-59
2021/12/03 08:23:00;;;;;;;7.50;6.03;;;;;;;1.14;85.70;99855.56;5002792;28;20234;-59
2021/12/03 08:25:27;;;;;;;8.30;6.50;;;;;;;1.07;85.83;99854.84;4991020;28;20179;-59
2021/12/03 08:27:54;;;;;;;11.20;6.77;;;;;;;0.90;86.51;99854.34;4984977;28;20657;-59
2021/12/03 08:30:19;;;;;;;6.87;5.97;;;;;;;0.95;86.74;99860.97;4967009;28;20180;-59
2021/12/03 08:32:44;;;;;;;8.20;6.77;;;;;;;1.22;86.80;99855.44;5014165;28;20690;-59
2021/12/03 08:35:10;;;;;;;11.87;6.80;;;;;;;1.30;85.92;99863.69;4989478;28;20195;-59
2021/12/03 08:37:37;;;;;;;8.57;6.50;;;;;;;1.43;85.66;99856.69;4981390;28;20625;-59
2021/12/03 08:40:05;;;;;;;11.23;6.77;;;;;;;1.36;84.47;99855.16;4986900;28;20295;-60
2021/12/03 08:42:30;;;;;;;7.03;6.30;;;;;;;1.54;84.86;99848.84;5005963;28;20200;-59
2021/12/03 08:44:58;;;;;;;9.00;6.90;;;;;;;1.87;83.87;99851.50;4990493;28;20589;-59
2021/12/03 08:47:24;;;;;;;9.17;6.67;;;;;;;1.93;82.12;99853.91;4990488;28;20234;-59
2021/12/03 08:49:51;;;;;;;9.33;6.37;;;;;;;1.88;82.58;99843.03;4993904;28;20198;-59
2021/12/03 08:57:15;;;;;;;15.47;6.17;;;;;;;2.79;79.82;99830.66;4971893;28;20227;-60
2021/12/03 08:59:40;;;;;;;6.93;4.60;;;;;;;3.21;77.64;99837.13;4971633;28;20287;-59
2021/12/03 09:02:06;;;;;;;8.67;5.20;;;;;;;3.23;76.87;99840.47;4976693;28;20846;-59
2021/12/03 09:04:31;;;;;;;10.57;6.07;;;;;;;3.45;75.66;99839.81;4978547;28;20712;-59
2021/12/03 09:06:58;;;;;;;6.37;5.77;;;;;;;3.32;75.16;99842.72;4990135;28;20959;-59
2021/12/03 09:09:24;;;;;;;6.30;5.23;;;;;;;3.09;75.77;99847.63;4989902;28;20238;-59
2021/12/03 09:11:50;;;;;;;8.70;5.93;;;;;;;3.19;76.19;99827.00;4990662;28;20264;-59
2021/12/03 09:17:10;;;;;;;8.50;5.13;;;;;;;4.97;69.62;99829.00;4990719;28;20175;-59
2021/12/03 09:24:58;;;;;;;6.38;5.07;;;;;;;6.55;60.47;99828.03;4993518;28;20432;-59
2021/12/03 09:27:24;;;;;;;5.90;4.80;;;;;;;5.73;63.38;99828.75;4993708;28;20179;-59
2021/12/03 09:29:52;;;;;;;5.20;4.50;;;;;;;5.16;65.78;99826.63;4996041;28;20278;-60
2021/12/03 09:32:22;;;;;;;7.93;5.00;;;;;;;4.66;68.23;99842.81;5013848;28;20233;-59
2021/12/03 09:34:48;;;;;;;7.43;5.43;;;;;;;4.12;70.90;99838.63;4985951;28;20194;-59
2021/12/03 09:37:14;;;;;;;7.10;4.50;;;;;;;3.86;72.20;99830.13;4992580;28;20711;-59
2021/12/03 09:39:42;;;;;;;7.83;5.13;;;;;;;4.01;72.98;99831.38;4993823;28;20197;-60
2021/12/03 09:42:07;;;;;;;8.93;5.17;;;;;;;4.91;69.65;99834.31;4998233;28;20215;-60
2021/12/03 09:44:33;;;;;;;10.50;5.37;;;;;;;7.23;61.31;99832.78;4986737;28;20186;-59
2021/12/03 09:46:59;;;;;;;8.07;5.67;;;;;;;7.59;57.17;99823.47;4993894;28;20179;-59
2021/12/03 09:49:31;;;;;;;6.77;4.53;;;;;;;6.32;59.19;99825.63;4993362;28;20257;-59
2021/12/03 09:57:07;;;;;;;7.30;6.00;;;;;;;5.52;64.61;99830.41;4993792;28;20266;-60
2021/12/03 10:13:21;;;;;;;6.90;4.80;;;;;;;3.29;74.14;99842.00;5010814;28;20194;-59
2021/12/03 10:18:41;;;;;;;8.48;5.53;;;;;;;3.44;73.51;99833.94;4992438;28;20428;-59
2021/12/03 10:24:33;;;;;;;8.20;4.87;;;;;;;3.16;74.77;99821.19;4997250;28;20186;-58
2021/12/03 10:29:19;;;;;;;8.97;5.07;;;;;;;3.04;75.47;99828.28;4995842;28;20665;-59
2021/12/03 10:43:15;;;;;;;7.63;4.50;;;;;;;3.00;75.18;99806.38;5003459;28;20191;-59
2021/12/03 10:46:01;;;;;;;8.33;4.50;;;;;;;2.96;76.15;99803.94;4986806;28;20623;-59
2021/12/03 10:48:50;;;;;;;6.20;4.60;;;;;;;2.84;75.95;99798.34;4987355;28;20207;-60
2021/12/03 11:07:45;;;;;;;8.63;5.57;;;;;;;3.17;74.80;99800.78;4989815;28;20265;-59
2021/12/03 11:12:57;;;;;;;8.87;6.13;;;;;;;2.84;77.32;99798.34;4989054;28;20703;-59
2021/12/03 11:18:25;;;;;;;9.30;5.57;;;;;;;3.07;76.56;99786.69;4992001;28;20567;-59
2021/12/03 11:40:08;;;;;;;8.93;6.20;;;;;;;3.20;76.38;99754.97;4989536;28;20778;-59
2021/12/03 12:11:17;;;;;;;6.27;3.63;;;;;;;2.48;79.13;99739.22;4991305;28;20557;-58
2021/12/03 13:17:14;;;;;;;8.87;5.47;;;;;;;1.77;83.74;99686.03;4975092;28;20208;-58
2021/12/03 14:03:30;;;;;;;13.07;8.23;;;;;;;1.63;85.54;99601.91;4927431;29;20189;-59
2021/12/03 14:08:51;;;;;;;9.13;7.47;;;;;;;1.71;85.14;99617.72;4914221;29;20249;-58
2021/12/03 14:42:22;;;;;;;9.98;7.90;;;;;;;1.68;83.46;99574.72;4990467;28;20486;-58
2021/12/03 14:47:12;;;;;;;7.20;6.37;;;;;;;1.51;84.43;99578.50;4992016;28;20199;-59
2021/12/03 14:50:11;;;;;;;10.43;6.43;;;;;;;1.44;84.68;99580.38;4990541;28;20192;-59
2021/12/03 14:55:47;;;;;;;6.93;6.10;;;;;;;1.52;84.30;99575.09;4990762;28;20210;-58
2021/12/03 14:58:19;;;;;;;9.33;6.53;;;;;;;1.58;84.25;99564.81;4991785;28;20199;-58
2021/12/03 15:08:25;;;;;;;10.50;5.20;;;;;;;1.68;82.64;99598.34;4990946;28;20353;-59
2021/12/03 15:11:50;;;;;;;8.20;5.85;;;;;;;1.64;82.88;99594.25;4986517;28;20962;-59
2021/12/03 15:27:22;;;;;;;8.50;4.53;;;;;;;1.43;83.39;99563.50;4991263;28;20207;-59
2021/12/03 15:32:43;;;;;;;7.93;5.60;;;;;;;1.77;82.66;99570.22;5002758;28;20534;-60
2021/12/03 15:35:16;;;;;;;8.93;4.90;;;;;;;1.66;82.67;99562.06;4991819;28;20259;-59
2021/12/03 15:56:34;;;;;;;5.53;4.33;;;;;;;1.38;84.11;99519.69;4991070;28;20191;-68
2021/12/03 16:04:51;;;;;;;10.23;4.40;;;;;;;1.34;85.38;99529.94;4973557;28;20870;-66
2021/12/03 16:10:10;;;;;;;4.80;3.83;;;;;;;1.32;85.20;99508.91;4988064;28;20266;-67
2021/12/03 16:12:53;;;;;;;5.80;4.17;;;;;;;1.25;86.10;99504.00;4974457;28;20764;-66
2021/12/03 16:15:53;;;;;;;7.07;4.30;;;;;;;1.36;85.44;99507.94;4983299;28;20242;-63
2021/12/03 16:20:55;;;;;;;10.33;4.20;;;;;;;1.37;85.13;99519.75;4982716;28;20301;-67
2021/12/03 16:43:37;;;;;;;5.57;4.93;;;;;;;1.59;84.76;99505.63;4965101;28;20498;-65
2021/12/03 16:52:49;;;;;;;4.73;4.07;;;;;;;1.37;86.02;99485.09;4979663;28;20320;-69
2021/12/03 16:55:15;;;;;;;4.70;4.20;;;;;;;1.45;85.89;99485.72;4992894;28;20603;-65
2021/12/03 16:57:42;;;;;;;5.40;3.60;;;;;;;1.32;85.85;99479.31;4994365;28;20684;-59
2021/12/03 17:32:18;;;;;;;5.30;4.18;;;;;;;1.37;87.29;99444.53;4993726;28;20454;-60
2021/12/03 17:50:41;;;;;;;5.13;3.33;;;;;;;1.23;88.67;99413.69;4972823;28;20326;-60
2021/12/03 17:58:32;;;;;;;4.37;3.23;;;;;;;1.27;89.11;99407.66;4994653;28;20568;-60
2021/12/03 18:01:10;;;;;;;5.17;4.00;;;;;;;1.36;88.87;99396.44;5002668;28;20227;-61
2021/12/03 18:09:39;;;;;;;5.00;3.40;;;;;;;1.47;87.31;99393.63;4991160;28;20218;-60
2021/12/03 18:51:13;;;;;;;6.57;4.33;;;;;;;1.47;88.20;99336.13;4987205;28;20800;-59
2021/12/03 18:56:30;;;;;;;9.20;4.33;;;;;;;1.65;87.71;99329.69;4985997;28;20211;-62
2021/12/03 18:59:04;;;;;;;7.83;4.50;;;;;;;1.60;87.02;99312.09;4991486;28;20264;-61
2021/12/03 19:01:31;;;;;;;5.50;3.43;;;;;;;1.69;86.59;99316.03;4992216;28;20236;-61